createdAt,value
2018-02-23T00:03:28.047Z,101809.42
2018-02-23T00:05:57.168Z,101808.09
2018-02-23T00:08:25.612Z,101807.00
2018-02-23T00:10:54.003Z,101802.03
2018-02-23T00:13:22.377Z,101805.16
2018-02-23T00:15:50.717Z,101805.36
2018-02-23T00:18:19.081Z,101806.89
2018-02-23T00:20:47.685Z,101797.45
2018-02-23T00:23:16.055Z,101796.37
2018-02-23T00:25:44.409Z,101794.03
2018-02-23T00:28:12.773Z,101796.20
2018-02-23T00:30:41.143Z,101795.77
2018-02-23T00:33:09.528Z,101801.52
2018-02-23T00:35:37.866Z,101804.37
2018-02-23T00:38:06.993Z,101805.11
2018-02-23T00:40:35.376Z,101804.20
2018-02-23T00:43:03.723Z,101808.83
2018-02-23T00:45:33.195Z,101808.97
2018-02-23T00:48:01.548Z,101810.63
2018-02-23T00:50:30.695Z,101816.01
2018-02-23T00:52:59.877Z,101814.97
2018-02-23T00:55:28.259Z,101805.63
2018-02-23T00:57:56.617Z,101806.48
2018-02-23T01:00:32.280Z,101804.09
2018-02-23T01:03:00.612Z,101811.30
2018-02-23T01:05:29.023Z,101805.64
2018-02-23T01:07:57.399Z,101802.75
2018-02-23T01:10:25.736Z,101801.35
2018-02-23T01:12:54.113Z,101797.39
2018-02-23T01:15:22.493Z,101793.61
2018-02-23T01:17:50.872Z,101793.25
2018-02-23T01:20:19.228Z,101792.77
2018-02-23T01:22:47.997Z,101794.25
2018-02-23T01:25:16.375Z,101792.60
2018-02-23T01:27:44.713Z,101794.87
2018-02-23T01:30:13.081Z,101795.11
2018-02-23T01:32:41.419Z,101795.98
2018-02-23T01:35:11.139Z,101792.09
2018-02-23T01:37:40.251Z,101796.76
2018-02-23T01:40:08.614Z,101794.12
2018-02-23T01:42:37.369Z,101790.42
2018-02-23T01:45:05.701Z,101786.61
2018-02-23T01:47:34.076Z,101795.84
2018-02-23T01:50:02.429Z,101792.13
2018-02-23T01:52:30.840Z,101758.30
2018-02-23T01:54:59.977Z,101788.37
2018-02-23T01:57:28.324Z,101785.61
2018-02-23T01:59:57.621Z,101789.08
2018-02-23T02:02:25.962Z,101790.94
2018-02-23T02:04:54.333Z,101793.66
2018-02-23T02:07:23.477Z,101785.42
2018-02-23T02:09:51.780Z,101779.05
2018-02-23T02:12:20.182Z,101786.03
2018-02-23T02:14:49.288Z,101778.61
2018-02-23T02:17:18.400Z,101778.12
2018-02-23T02:19:46.872Z,101777.19
2018-02-23T02:22:15.209Z,101781.30
2018-02-23T02:24:43.624Z,101778.52
2018-02-23T02:27:11.922Z,101776.69
2018-02-23T02:29:40.296Z,101770.17
2018-02-23T02:32:08.675Z,101767.63
2018-02-23T02:34:37.021Z,101764.80
2018-02-23T02:37:06.157Z,101763.09
2018-02-23T02:39:34.504Z,101759.28
2018-02-23T02:42:02.859Z,101763.68
2018-02-23T02:44:31.189Z,101796.70
2018-02-23T02:46:59.560Z,101756.40
2018-02-23T02:49:27.913Z,101755.45
2018-02-23T02:51:56.289Z,101759.13
2018-02-23T02:54:24.628Z,101754.52
2018-02-23T02:56:52.999Z,101757.15
2018-02-23T02:59:25.457Z,101753.77
2018-02-23T03:01:53.838Z,101762.75
2018-02-23T03:04:22.217Z,101762.31
2018-02-23T03:06:50.606Z,101758.40
2018-02-23T03:09:18.972Z,101761.47
2018-02-23T03:11:47.320Z,101763.05
2018-02-23T03:14:15.700Z,101766.40
2018-02-23T03:16:44.079Z,101771.12
2018-02-23T03:19:13.207Z,101769.84
2018-02-23T03:21:41.538Z,101768.86
2018-02-23T03:24:10.708Z,101768.26
2018-02-23T03:26:39.039Z,101775.36
2018-02-23T03:29:07.377Z,101778.27
2018-02-23T03:31:36.521Z,101779.11
2018-02-23T03:34:04.910Z,101784.70
2018-02-23T03:36:34.070Z,101779.70
2018-02-23T03:39:02.472Z,101785.63
2018-02-23T03:41:30.832Z,101791.45
2018-02-23T03:43:59.199Z,101789.84
2018-02-23T03:46:28.380Z,101795.33
2018-02-23T03:48:57.704Z,101793.59
2018-02-23T03:51:26.108Z,101792.39
2018-02-23T03:53:54.464Z,101791.23
2018-02-23T03:56:22.936Z,101786.92
2018-02-23T03:58:51.481Z,101785.53
2018-02-23T04:01:19.823Z,101789.36
2018-02-23T04:03:48.264Z,101791.75
2018-02-23T04:06:17.893Z,101793.98
2018-02-23T04:08:46.326Z,101792.64
2018-02-23T04:11:14.704Z,101786.38
2018-02-23T04:13:43.230Z,101786.43
2018-02-23T04:16:11.537Z,101788.90
2018-02-23T04:18:39.885Z,101794.11
2018-02-23T04:21:08.251Z,101787.89
2018-02-23T04:23:37.371Z,101790.13
2018-02-23T04:26:05.713Z,101792.26
2018-02-23T04:28:34.886Z,101792.77
2018-02-23T04:31:03.195Z,101796.83
2018-02-23T04:33:32.327Z,101794.48
2018-02-23T04:36:00.652Z,101797.90
2018-02-23T04:38:29.027Z,101789.13
2018-02-23T04:40:57.359Z,101795.05
2018-02-23T04:43:25.752Z,101798.12
2018-02-23T04:45:54.112Z,101788.06
2018-02-23T04:48:22.455Z,101796.50
2018-02-23T04:50:51.599Z,101797.41
2018-02-23T04:53:19.908Z,101799.14
2018-02-23T04:55:49.017Z,101794.15
2018-02-23T04:58:18.156Z,101799.96
2018-02-23T05:00:46.547Z,101804.56
2018-02-23T05:03:14.912Z,101802.16
2018-02-23T05:05:43.283Z,101813.55
2018-02-23T05:08:11.604Z,101812.44
2018-02-23T05:10:39.965Z,101812.81
2018-02-23T05:13:08.318Z,101819.63
2018-02-23T05:15:36.653Z,101816.33
2018-02-23T05:18:06.539Z,101812.17
2018-02-23T05:20:34.887Z,101819.72
2018-02-23T05:23:03.228Z,101814.31
2018-02-23T05:25:32.579Z,101819.10
2018-02-23T05:28:00.913Z,101825.17
2018-02-23T05:30:30.067Z,101828.36
2018-02-23T05:32:58.384Z,101827.66
2018-02-23T05:35:27.500Z,101830.23
2018-02-23T05:37:56.737Z,101832.41
2018-02-23T05:40:25.095Z,101833.70
2018-02-23T05:42:53.570Z,101837.08
2018-02-23T05:45:22.302Z,101839.20
2018-02-23T05:47:50.667Z,101851.81
2018-02-23T05:50:18.992Z,101850.02
2018-02-23T05:52:47.468Z,101850.78
2018-02-23T05:55:15.799Z,101858.66
2018-02-23T05:57:44.138Z,101859.61
2018-02-23T06:00:12.882Z,101861.78
2018-02-23T06:02:41.207Z,101858.54
2018-02-23T06:05:09.553Z,101859.71
2018-02-23T06:07:38.261Z,101871.04
2018-02-23T06:10:06.618Z,101874.11
2018-02-23T06:12:35.721Z,101874.31
2018-02-23T06:15:04.061Z,101871.08
2018-02-23T06:17:37.976Z,101882.36
2018-02-23T06:20:09.131Z,101880.39
2018-02-23T06:22:38.248Z,101873.48
2018-02-23T06:25:06.604Z,101877.91
2018-02-23T06:27:34.942Z,101879.53
2018-02-23T06:30:03.338Z,101885.10
2018-02-23T06:32:31.707Z,101886.98
2018-02-23T06:35:00.053Z,101882.89
2018-02-23T06:37:28.381Z,101882.62
2018-02-23T06:39:57.102Z,101889.86
2018-02-23T06:42:25.477Z,101885.22
2018-02-23T06:44:53.800Z,101891.93
2018-02-23T06:47:22.936Z,101895.45
2018-02-23T06:49:52.039Z,101893.70
2018-02-23T06:52:20.403Z,101896.66
2018-02-23T06:54:49.506Z,101897.92
2018-02-23T06:57:18.626Z,101914.56
2018-02-23T06:59:47.007Z,101909.69
2018-02-23T07:02:15.362Z,101903.70
2018-02-23T07:04:43.721Z,101907.81
2018-02-23T07:07:12.056Z,101905.41
2018-02-23T07:09:40.423Z,101920.80
2018-02-23T07:12:08.767Z,101922.16
2018-02-23T07:14:37.902Z,101920.03
2018-02-23T07:17:06.266Z,101920.50
2018-02-23T07:19:34.670Z,101926.48
2018-02-23T07:22:03.011Z,101922.75
2018-02-23T07:24:31.373Z,101927.38
2018-02-23T07:27:00.480Z,101923.61
2018-02-23T07:29:29.612Z,101928.25
2018-02-23T07:31:57.925Z,101927.94
2018-02-23T07:34:26.253Z,101923.31
2018-02-23T07:36:54.628Z,101922.60
2018-02-23T07:39:24.302Z,101920.13
2018-02-23T07:41:52.728Z,101916.50
2018-02-23T07:44:21.307Z,101914.08
2018-02-23T07:46:50.447Z,101911.06
2018-02-23T07:49:20.931Z,101916.20
2018-02-23T07:51:49.440Z,101917.07
2018-02-23T07:54:17.929Z,101922.02
2018-02-23T07:56:47.098Z,101919.80
2018-02-23T07:59:15.480Z,101909.86
2018-02-23T08:01:43.792Z,101915.94
2018-02-23T08:04:12.167Z,101925.64
2018-02-23T08:06:41.659Z,101929.71
2018-02-23T08:09:10.012Z,101929.52
2018-02-23T08:11:38.372Z,101926.83
2018-02-23T08:14:06.798Z,101926.66
2018-02-23T08:16:35.150Z,101927.84
2018-02-23T08:19:03.922Z,101934.63
2018-02-23T08:21:32.258Z,101930.21
2018-02-23T08:24:01.404Z,101929.57
2018-02-23T08:26:35.473Z,101927.40
2018-02-23T08:29:28.015Z,101931.05
2018-02-23T08:31:57.162Z,101928.22
2018-02-23T08:34:25.489Z,101934.93
2018-02-23T08:36:54.606Z,101940.30
2018-02-23T08:39:22.978Z,101938.89
2018-02-23T08:41:51.300Z,101940.39
2018-02-23T08:44:19.722Z,101943.16
2018-02-23T08:46:48.841Z,101943.55
2018-02-23T08:49:17.177Z,101939.86
2018-02-23T08:51:45.525Z,101942.84
2018-02-23T08:54:15.189Z,101951.04
2018-02-23T08:56:44.333Z,101941.95
2018-02-23T08:59:13.437Z,101945.47
2018-02-23T09:01:41.795Z,101940.38
2018-02-23T09:04:10.159Z,101939.17
2018-02-23T09:06:38.530Z,101950.55
2018-02-23T09:09:06.863Z,101943.65
2018-02-23T09:11:35.225Z,101943.89
2018-02-23T09:14:03.545Z,101940.12
2018-02-23T09:16:32.665Z,101939.91
2018-02-23T09:19:01.013Z,101938.36
2018-02-23T12:10:08.782Z,101919.59
2018-02-23T12:12:37.169Z,101906.75
2018-02-23T12:15:05.583Z,101912.45
2018-02-23T12:17:33.913Z,101912.06
2018-02-23T12:20:02.301Z,101907.36
2018-02-23T12:22:31.481Z,101914.13
2018-02-23T12:24:59.948Z,101908.89
2018-02-23T12:27:28.315Z,101914.48
2018-02-23T12:29:57.482Z,101908.66
2018-02-23T12:32:25.885Z,101904.70
2018-02-23T12:34:54.210Z,101905.95
2018-02-23T12:37:22.554Z,101896.95
2018-02-23T12:39:51.693Z,101905.49
2018-02-23T12:42:20.057Z,101894.39
2018-02-23T12:44:48.451Z,101902.05
2018-02-23T12:47:16.823Z,101896.75
2018-02-23T12:49:45.243Z,101895.56
2018-02-23T12:52:13.583Z,101901.81
2018-02-23T12:54:41.949Z,101894.84
2018-02-23T12:57:10.315Z,101888.16
2018-02-23T12:59:38.695Z,101894.09
2018-02-23T13:02:07.040Z,101893.47
2018-02-23T13:04:36.163Z,101906.72
2018-02-23T13:07:05.262Z,101896.58
2018-02-23T13:09:33.651Z,101888.08
2018-02-23T13:12:02.015Z,101884.89
2018-02-23T13:14:35.774Z,101880.67
2018-02-23T13:17:05.155Z,101881.65
2018-02-23T13:19:34.206Z,101886.23
2018-02-23T13:22:02.542Z,101876.45
2018-02-23T13:24:30.883Z,101881.28
2018-02-23T13:27:04.772Z,101877.38
2018-02-23T13:29:33.117Z,101877.23
2018-02-23T13:32:01.495Z,101879.62
2018-02-23T13:34:29.826Z,101875.81
2018-02-23T13:36:58.214Z,101876.30
2018-02-23T13:39:26.552Z,101872.97
2018-02-23T13:41:55.675Z,101872.53
2018-02-23T13:44:24.010Z,101879.22
2018-02-23T13:46:53.566Z,101878.97
2018-02-23T13:49:21.901Z,101883.03
2018-02-23T13:51:51.027Z,101884.77
2018-02-23T13:54:24.350Z,101892.39
2018-02-23T13:56:52.697Z,101881.04
2018-02-23T13:59:21.056Z,101879.78
2018-02-23T14:01:50.181Z,101888.53
2018-02-23T14:04:20.049Z,101884.48
2018-02-23T14:06:49.518Z,101881.00
2018-02-23T14:09:17.999Z,101875.13
2018-02-23T14:11:46.334Z,101875.94
2018-02-23T14:14:14.659Z,101872.84
2018-02-23T14:16:43.023Z,101880.23
2018-02-23T14:19:12.125Z,101873.05
2018-02-23T14:21:41.240Z,101878.81
2018-02-23T14:24:09.597Z,101868.27
2018-02-23T14:26:37.930Z,101875.28
2018-02-23T14:29:06.314Z,101884.37
2018-02-23T14:31:34.695Z,101884.09
2018-02-23T14:34:03.036Z,101883.84
2018-02-23T14:36:31.388Z,101881.05
2018-02-23T14:38:59.751Z,101882.14
2018-02-23T14:41:28.837Z,101877.67
2018-02-23T14:43:57.207Z,101880.44
2018-02-23T14:46:25.555Z,101874.76
2018-02-23T14:49:20.834Z,101885.79
2018-02-23T14:51:49.179Z,101877.96
2018-02-23T14:54:17.536Z,101880.11
2018-02-23T14:56:45.903Z,101887.17
2018-02-23T14:59:15.011Z,101879.66
2018-02-23T15:01:43.342Z,101879.70
2018-02-23T15:04:11.711Z,101875.97
2018-02-23T15:06:40.035Z,101878.05
2018-02-23T15:09:10.014Z,101868.31
2018-02-23T15:11:38.358Z,101871.88
2018-02-23T15:14:06.731Z,101866.89
2018-02-23T15:16:35.064Z,101871.84
2018-02-23T15:19:03.394Z,101876.38
2018-02-23T15:21:31.762Z,101872.32
2018-02-23T15:24:00.107Z,101875.00
2018-02-23T15:26:29.239Z,101876.55
2018-02-23T15:28:57.607Z,101872.77
2018-02-23T15:31:43.606Z,101878.16
2018-02-23T15:34:11.925Z,101874.66
2018-02-23T15:36:40.302Z,101879.24
2018-02-23T15:39:08.641Z,101876.35
2018-02-23T15:41:37.091Z,101881.67
2018-02-23T15:44:05.415Z,101885.73
2018-02-23T15:46:33.828Z,101882.52
2018-02-23T15:49:08.405Z,101887.50
2018-02-23T15:54:43.470Z,101879.58
2018-02-23T15:57:26.710Z,101880.53
2018-02-23T15:59:55.032Z,101885.72
2018-02-23T16:02:23.407Z,101879.98
2018-02-23T16:04:52.874Z,101881.37
2018-02-23T16:07:22.578Z,101890.41
2018-02-23T16:09:50.933Z,101888.90
2018-02-23T16:12:19.494Z,101889.59
2018-02-23T16:14:47.856Z,101895.19
2018-02-23T16:17:17.771Z,101890.94
2018-02-23T16:19:47.755Z,101893.66
2018-02-23T16:22:16.083Z,101892.27
2018-02-23T16:24:44.428Z,101891.89
2018-02-23T16:27:13.556Z,101887.55
2018-02-23T16:29:41.898Z,101888.31
2018-02-23T16:32:10.249Z,101885.36
2018-02-23T16:34:39.882Z,101897.33
2018-02-23T16:37:08.327Z,101891.39
2018-02-23T16:39:36.686Z,101900.72
2018-02-23T16:42:05.033Z,101901.78
2018-02-23T16:44:35.026Z,101909.55
2018-02-23T16:47:03.686Z,101902.45
2018-02-23T16:49:32.187Z,101904.95
2018-02-23T16:52:00.595Z,101909.86
2018-02-23T16:54:29.723Z,101899.90
2018-02-23T16:56:58.088Z,101911.28
2018-02-23T16:59:26.450Z,101903.02
2018-02-23T17:01:55.250Z,101918.20
2018-02-23T17:04:23.637Z,101916.89
2018-02-23T17:06:52.382Z,101919.25
2018-02-23T17:09:21.862Z,101923.14
2018-02-23T17:11:50.221Z,101924.64
2018-02-23T17:14:18.604Z,101924.91
2018-02-23T17:16:46.945Z,101929.06
2018-02-23T17:19:15.278Z,101934.02
2018-02-23T17:21:44.886Z,101926.58
2018-02-23T17:24:13.278Z,101944.12
2018-02-23T17:26:41.736Z,101939.94
2018-02-23T17:29:10.237Z,101947.19
2018-02-23T17:31:38.639Z,101940.78
2018-02-23T17:34:07.114Z,101941.88
2018-02-23T17:36:36.664Z,101941.91
2018-02-23T17:39:11.601Z,101935.47
2018-02-23T17:41:40.003Z,101932.83
2018-02-23T17:44:08.557Z,101935.13
2018-02-23T17:46:36.978Z,101931.34
2018-02-23T17:49:06.490Z,101934.23
2018-02-23T17:51:36.393Z,101933.25
2018-02-23T17:54:06.235Z,101927.84
2018-02-23T17:56:35.365Z,101926.72
2018-02-23T17:59:05.208Z,101927.45
2018-02-23T18:01:33.697Z,101928.83
2018-02-23T18:04:02.923Z,101917.63
2018-02-23T18:06:31.386Z,101922.67
2018-02-23T18:09:00.561Z,101930.38
2018-02-23T18:11:30.584Z,101931.13
2018-02-23T18:13:59.245Z,101927.66
2018-02-23T18:16:27.631Z,101930.78
2018-02-23T18:18:56.351Z,101932.92
2018-02-23T18:21:24.872Z,101929.84
2018-02-23T18:23:53.232Z,101930.93
2018-02-23T18:26:21.992Z,101933.36
2018-02-23T18:28:50.445Z,101929.73
2018-02-23T18:31:18.917Z,101930.83
2018-02-23T18:33:47.726Z,101933.66
2018-02-23T18:36:16.100Z,101937.53
2018-02-23T18:38:44.471Z,101936.38
2018-02-23T18:41:12.851Z,101928.87
2018-02-23T18:43:41.204Z,101932.28
2018-02-23T18:46:10.443Z,101928.08
2018-02-23T18:48:39.610Z,101925.92
2018-02-23T18:51:07.982Z,101929.64
2018-02-23T18:53:36.372Z,101929.17
2018-02-23T18:56:04.722Z,101939.33
2018-02-23T18:58:35.560Z,101936.95
2018-02-23T19:01:04.597Z,101940.22
2018-02-23T19:03:33.850Z,101946.05
2018-02-23T19:06:02.271Z,101944.77
2018-02-23T19:08:30.617Z,101947.05
2018-02-23T19:10:59.722Z,101946.61
2018-02-23T19:13:28.102Z,101951.55
2018-02-23T19:15:57.848Z,101953.14
2018-02-23T19:18:26.960Z,101958.19
2018-02-23T19:20:56.099Z,101956.47
2018-02-23T19:23:24.442Z,101960.38
2018-02-23T19:25:53.613Z,101955.06
2018-02-23T19:28:21.954Z,101958.84
2018-02-23T19:30:51.567Z,101958.67
2018-02-23T19:33:20.029Z,101960.66
2018-02-23T19:35:49.151Z,101969.64
2018-02-23T19:38:17.486Z,101966.23
2018-02-23T19:40:47.368Z,101964.25
2018-02-23T19:43:17.232Z,101964.42
2018-02-23T19:45:45.623Z,101964.83
2018-02-23T19:48:14.021Z,101973.41
2018-02-23T19:50:43.120Z,101970.95
2018-02-23T19:53:11.460Z,101973.04
2018-02-23T19:55:39.852Z,101981.49
2018-02-23T19:58:08.216Z,101975.64
2018-02-23T20:00:36.562Z,101976.56
2018-02-23T20:03:04.952Z,101976.56
2018-02-23T20:05:33.313Z,101984.95
2018-02-23T20:08:02.464Z,101997.39
2018-02-23T20:10:30.827Z,101996.66
2018-02-23T20:12:59.176Z,101992.39
2018-02-23T20:15:27.523Z,101996.80
2018-02-23T20:17:55.876Z,102005.50
2018-02-23T20:20:24.364Z,102014.45
2018-02-23T20:22:53.521Z,102023.88
2018-02-23T20:25:21.830Z,102018.45
2018-02-23T20:27:50.199Z,102023.83
2018-02-23T20:30:18.582Z,102027.33
2018-02-23T20:32:46.965Z,102024.25
2018-02-23T20:35:15.336Z,102028.58
2018-02-23T20:37:45.422Z,102022.79
2018-02-23T20:40:13.794Z,102024.89
2018-02-23T20:42:42.205Z,102032.67
2018-02-23T20:45:10.678Z,102026.28
2018-02-23T20:47:39.040Z,102033.30
2018-02-23T20:50:08.142Z,102026.52
2018-02-23T20:52:36.511Z,102031.41
2018-02-23T20:55:04.888Z,102026.86
2018-02-23T20:57:33.231Z,102018.44
2018-02-23T21:00:01.637Z,102025.96
2018-02-23T21:02:29.985Z,102019.12
2018-02-23T21:04:58.363Z,102030.56
2018-02-23T21:07:26.713Z,102016.77
2018-02-23T21:09:55.094Z,102017.42
2018-02-23T21:12:23.439Z,102017.04
2018-02-23T21:14:51.839Z,102025.96
2018-02-23T21:17:20.175Z,102025.06
2018-02-23T21:19:49.278Z,102026.57
2018-02-23T21:22:17.740Z,102027.91
2018-02-23T21:24:46.888Z,102028.20
2018-02-23T21:27:15.268Z,102026.34
2018-02-23T21:29:43.956Z,102032.97
2018-02-23T21:32:12.332Z,102031.84
2018-02-23T21:34:40.670Z,102031.39
2018-02-23T21:37:09.773Z,102031.72
2018-02-23T21:39:38.145Z,102026.14
2018-02-23T21:42:07.247Z,102027.95
2018-02-23T21:44:47.917Z,102030.63
2018-02-23T21:47:17.093Z,102031.89
2018-02-23T21:49:45.464Z,102033.87
2018-02-23T21:52:14.611Z,102036.31
2018-02-23T21:54:42.972Z,102039.47
2018-02-23T21:57:11.300Z,102033.03
2018-02-23T21:59:39.687Z,102036.44
2018-02-23T22:02:08.850Z,102042.55
2018-02-23T22:04:37.233Z,102043.56
2018-02-23T22:07:05.606Z,102047.37
2018-02-23T22:09:33.977Z,102046.53
2018-02-23T22:12:02.329Z,102048.38
2018-02-23T22:14:30.711Z,102052.07
2018-02-23T22:16:59.071Z,102047.78
2018-02-23T22:19:29.071Z,102054.46
2018-02-23T22:21:58.252Z,102053.89
2018-02-23T22:24:26.603Z,102057.53
2018-02-23T22:26:55.018Z,102055.34
2018-02-23T22:29:28.855Z,102053.32
2018-02-23T22:31:57.182Z,102056.13
2018-02-23T22:34:25.583Z,102057.19
2018-02-23T22:36:55.203Z,102055.91
2018-02-23T22:39:23.770Z,102063.48
2018-02-23T22:41:52.218Z,102065.03
2018-02-23T22:44:20.607Z,102063.45
2018-02-23T22:46:48.995Z,102064.31
2018-02-23T22:49:17.319Z,102065.88
2018-02-23T22:51:46.491Z,102058.11
2018-02-23T22:54:15.649Z,102054.67
2018-02-23T22:56:44.657Z,102052.61
2018-02-23T22:59:13.052Z,102042.78
2018-02-23T23:01:41.951Z,102053.13
2018-02-23T23:04:10.407Z,102055.30
2018-02-23T23:06:38.790Z,102058.05
2018-02-23T23:09:07.965Z,102053.11
2018-02-23T23:11:36.488Z,102055.80
2018-02-23T23:14:04.993Z,102051.73
2018-02-23T23:16:34.235Z,102058.03
2018-02-23T23:19:02.594Z,102056.97
2018-02-23T23:21:31.278Z,102061.75
2018-02-23T23:23:59.671Z,102055.78
2018-02-23T23:26:28.009Z,102052.88
2018-02-23T23:28:56.408Z,102062.98
2018-02-23T23:31:24.775Z,102066.33
2018-02-23T23:33:53.110Z,102060.37
2018-02-23T23:36:21.581Z,102070.37
2018-02-23T23:38:49.968Z,102071.69
2018-02-23T23:41:18.346Z,102071.10
2018-02-23T23:43:47.459Z,102072.44
2018-02-23T23:46:16.597Z,102080.61
2018-02-23T23:48:45.689Z,102073.02
2018-02-23T23:51:14.106Z,102073.47
2018-02-23T23:53:42.478Z,102084.02
2018-02-23T23:56:10.905Z,102077.84
2018-02-23T23:58:39.242Z,102087.86
